Time;durP1;ratioP1;P1;durP2;ratioP2;P2;SDS_P1;SDS_P2;PMS_P1;PMS_P2;Temp;Humidity;BMP_temperature;BMP_pressure;BME280_temperature;BME280_humidity;BME280_pressure;Samples;Min_cycle;Max_cycle;Signal;HPM_P1;HPM_P2
2023/06/29 00:01:26;;;;;;;37.42;31.75;;;18.60;99.90;;;;;;7365060;19;20029;-62
2023/06/29 00:03:52;;;;;;;39.83;30.80;;;18.60;99.90;;;;;;7366809;19;20029;-62
2023/06/29 00:06:19;;;;;;;43.13;33.53;;;18.60;99.90;;;;;;7369379;19;20015;-63
2023/06/29 00:08:47;;;;;;;36.70;31.88;;;18.60;99.90;;;;;;7366028;19;20018;-61
2023/06/29 00:11:13;;;;;;;33.83;30.17;;;18.50;99.90;;;;;;7367168;19;20019;-62
2023/06/29 00:13:39;;;;;;;36.95;32.95;;;18.50;99.90;;;;;;7367947;19;20364;-61
2023/06/29 00:16:05;;;;;;;36.15;32.40;;;18.50;99.90;;;;;;7374353;19;20022;-61
2023/06/29 00:18:33;;;;;;;35.17;30.35;;;18.50;99.90;;;;;;7374165;19;20022;-61
2023/06/29 00:21:01;;;;;;;40.72;32.17;;;18.50;99.90;;;;;;7374026;19;20686;-62
2023/06/29 00:23:27;;;;;;;33.40;29.30;;;18.50;99.90;;;;;;7370129;19;20071;-62
2023/06/29 00:25:56;;;;;;;33.90;30.23;;;18.50;99.90;;;;;;7373949;19;20413;-64
2023/06/29 00:28:22;;;;;;;33.10;28.90;;;18.40;99.90;;;;;;7370812;19;20106;-62
2023/06/29 00:30:48;;;;;;;33.60;30.08;;;18.50;99.90;;;;;;7376580;19;20749;-62
2023/06/29 00:33:16;;;;;;;39.55;33.63;;;18.40;99.90;;;;;;7376085;19;20133;-64
2023/06/29 00:35:43;;;;;;;37.75;33.83;;;18.40;99.90;;;;;;7373622;19;20029;-62
2023/06/29 00:38:09;;;;;;;38.65;31.98;;;18.40;99.90;;;;;;7368309;19;20030;-62
2023/06/29 00:40:35;;;;;;;36.10;32.15;;;18.40;99.90;;;;;;7378835;19;20018;-62
2023/06/29 00:43:01;;;;;;;46.08;35.28;;;18.40;99.90;;;;;;7375409;19;20398;-63
2023/06/29 00:45:30;;;;;;;34.47;29.88;;;18.40;99.90;;;;;;7379549;19;20018;-64
2023/06/29 00:47:56;;;;;;;37.33;32.75;;;18.40;99.90;;;;;;7376860;19;20014;-62
2023/06/29 00:50:23;;;;;;;37.10;33.10;;;18.40;99.90;;;;;;7376806;19;20021;-62
2023/06/29 00:52:49;;;;;;;37.50;33.50;;;18.40;99.90;;;;;;7376364;19;20018;-63
2023/06/29 00:55:16;;;;;;;41.25;32.88;;;18.40;99.90;;;;;;7377350;19;20482;-63
2023/06/29 00:57:42;;;;;;;40.35;33.22;;;18.40;99.90;;;;;;7376053;19;20077;-63
2023/06/29 01:00:10;;;;;;;37.03;32.78;;;18.50;99.90;;;;;;7377360;19;20449;-63
2023/06/29 01:02:40;;;;;;;38.97;32.63;;;18.40;99.90;;;;;;7379906;19;20021;-62
2023/06/29 01:05:11;;;;;;;34.15;29.45;;;18.40;99.90;;;;;;7378160;19;20420;-63
2023/06/29 01:07:46;;;;;;;40.90;32.55;;;18.40;99.90;;;;;;7375871;19;20022;-62
2023/06/29 01:10:16;;;;;;;36.60;31.48;;;18.40;99.90;;;;;;7377063;19;20086;-63
2023/06/29 01:12:45;;;;;;;40.28;34.03;;;18.40;99.90;;;;;;7375691;19;20022;-62
2023/06/29 01:15:12;;;;;;;36.25;32.38;;;18.40;99.90;;;;;;7373140;19;20022;-62
2023/06/29 01:17:39;;;;;;;39.83;33.60;;;18.40;99.90;;;;;;7373684;19;20018;-62
2023/06/29 01:20:11;;;;;;;41.70;35.17;;;18.40;99.90;;;;;;7372665;19;20044;-67
2023/06/29 01:22:41;;;;;;;38.80;34.10;;;18.40;99.90;;;;;;7372581;19;20497;-64
2023/06/29 01:25:11;;;;;;;43.63;34.72;;;18.40;99.90;;;;;;7372329;19;20015;-62
2023/06/29 01:27:43;;;;;;;32.78;29.02;;;18.40;99.90;;;;;;7373954;19;20441;-64
2023/06/29 01:30:11;;;;;;;40.25;33.63;;;18.40;99.90;;;;;;7374850;19;20520;-63
2023/06/29 01:32:38;;;;;;;37.33;33.13;;;18.40;99.90;;;;;;7372902;19;20074;-63
2023/06/29 01:35:07;;;;;;;42.67;33.90;;;18.40;99.90;;;;;;7373596;19;20565;-63
2023/06/29 01:37:42;;;;;;;;;;;18.30;99.90;;;;;;7378119;19;20013;-62
2023/06/29 01:40:10;;;;;;;37.60;33.65;;;18.40;99.90;;;;;;7375314;19;20024;-63
2023/06/29 01:42:40;;;;;;;40.10;34.60;;;18.30;99.90;;;;;;7374531;19;20298;-64
2023/06/29 01:45:09;;;;;;;;;;;18.30;99.90;;;;;;7377548;19;20018;-63
2023/06/29 01:47:36;;;;;;;39.35;34.92;;;18.30;99.90;;;;;;7376264;19;19923;-63
2023/06/29 01:50:03;;;;;;;37.90;33.78;;;18.20;99.90;;;;;;7370764;19;20327;-64
2023/06/29 01:52:30;;;;;;;36.72;32.28;;;18.30;99.90;;;;;;7377281;19;20610;-63
2023/06/29 01:54:56;;;;;;;39.70;32.38;;;18.30;99.90;;;;;;7372476;19;20039;-63
2023/06/29 01:57:22;;;;;;;43.30;35.25;;;18.30;99.90;;;;;;7375850;19;20045;-62
2023/06/29 01:59:51;;;;;;;36.35;32.03;;;18.30;99.90;;;;;;7373480;19;20021;-62
2023/06/29 02:02:18;;;;;;;39.33;33.95;;;18.20;99.90;;;;;;7372757;19;20018;-63
2023/06/29 02:04:44;;;;;;;37.45;31.65;;;18.20;99.90;;;;;;7373869;19;20046;-64
2023/06/29 02:07:11;;;;;;;42.75;35.47;;;18.20;99.90;;;;;;7377549;19;20018;-64
2023/06/29 02:09:37;;;;;;;38.55;33.80;;;18.20;99.90;;;;;;7371565;19;20022;-63
2023/06/29 02:12:04;;;;;;;36.25;32.30;;;18.20;99.90;;;;;;7373912;19;20078;-63
2023/06/29 02:14:30;;;;;;;40.83;34.30;;;18.20;99.90;;;;;;7373770;19;20427;-63
2023/06/29 02:16:56;;;;;;;42.33;33.67;;;18.20;99.90;;;;;;7371150;19;20033;-64
2023/06/29 02:19:23;;;;;;;39.55;31.88;;;18.20;99.90;;;;;;7374870;19;20018;-64
2023/06/29 02:21:49;;;;;;;38.72;33.97;;;18.20;99.90;;;;;;7374581;19;20512;-64
2023/06/29 02:24:15;;;;;;;44.83;34.65;;;18.20;99.90;;;;;;7372534;19;21763;-64
2023/06/29 02:26:41;;;;;;;43.65;35.20;;;18.20;99.90;;;;;;7373917;19;20025;-64
2023/06/29 02:29:08;;;;;;;33.10;29.67;;;18.10;99.90;;;;;;7371073;19;20629;-64
2023/06/29 02:31:34;;;;;;;41.03;34.28;;;18.10;99.90;;;;;;7375757;19;20090;-63
2023/06/29 02:34:01;;;;;;;38.47;32.63;;;18.10;99.90;;;;;;7369646;19;20022;-63
2023/06/29 02:36:27;;;;;;;33.60;30.08;;;18.10;99.90;;;;;;7373318;19;20462;-63
2023/06/29 02:38:54;;;;;;;39.50;35.25;;;18.10;99.90;;;;;;7371731;19;20022;-63
2023/06/29 02:41:24;;;;;;;37.42;33.53;;;18.10;99.90;;;;;;7374512;19;20022;-67
2023/06/29 02:43:50;;;;;;;35.05;31.38;;;18.10;99.90;;;;;;7371848;19;20015;-62
2023/06/29 02:46:17;;;;;;;39.70;35.17;;;18.10;99.90;;;;;;7372477;19;20429;-63
2023/06/29 02:48:47;;;;;;;40.50;35.20;;;18.10;99.90;;;;;;7372461;19;20019;-61
2023/06/29 02:51:13;;;;;;;39.13;33.63;;;18.10;99.90;;;;;;7375257;19;20018;-62
2023/06/29 02:53:40;;;;;;;38.03;33.65;;;18.10;99.90;;;;;;7372909;19;20357;-62
2023/06/29 02:56:07;;;;;;;38.65;34.30;;;18.10;99.90;;;;;;7371597;19;20018;-61
2023/06/29 02:58:33;;;;;;;43.45;35.80;;;18.10;99.90;;;;;;7372306;19;20020;-63
2023/06/29 03:01:01;;;;;;;42.42;35.75;;;18.10;99.90;;;;;;7374423;19;20473;-63
2023/06/29 03:03:28;;;;;;;39.63;35.45;;;18.10;99.90;;;;;;7374467;19;20461;-61
2023/06/29 03:05:54;;;;;;;39.53;35.17;;;18.10;99.90;;;;;;7370595;19;20549;-63
2023/06/29 03:08:20;;;;;;;42.65;35.80;;;18.20;99.90;;;;;;7375629;19;20346;-63
2023/06/29 03:10:47;;;;;;;41.33;34.75;;;18.10;99.90;;;;;;7375571;19;20493;-63
2023/06/29 03:13:13;;;;;;;38.05;33.83;;;18.20;99.90;;;;;;7375174;19;20641;-64
2023/06/29 03:15:39;;;;;;;37.15;32.83;;;18.20;99.90;;;;;;7371354;19;20033;-64
2023/06/29 03:18:05;;;;;;;40.92;36.15;;;18.10;99.90;;;;;;7376007;19;20018;-63
2023/06/29 03:20:32;;;;;;;39.38;34.97;;;18.20;99.90;;;;;;7372098;19;20708;-63
2023/06/29 03:22:58;;;;;;;40.97;36.40;;;18.20;99.90;;;;;;7372343;19;20046;-63
2023/06/29 03:25:24;;;;;;;42.20;36.55;;;18.20;99.90;;;;;;7371848;19;20011;-64
2023/06/29 03:27:50;;;;;;;42.97;37.03;;;18.20;99.90;;;;;;7366525;19;20098;-64
2023/06/29 03:30:17;;;;;;;41.50;36.80;;;18.20;99.90;;;;;;7372362;19;20596;-64
2023/06/29 03:32:43;;;;;;;36.58;32.63;;;18.20;99.90;;;;;;7374202;19;20022;-64
2023/06/29 03:35:09;;;;;;;43.17;36.97;;;18.30;99.90;;;;;;7372086;19;20085;-64
2023/06/29 03:37:35;;;;;;;41.40;35.67;;;18.20;99.90;;;;;;7368728;19;20481;-63
2023/06/29 03:40:03;;;;;;;40.22;34.05;;;18.20;99.90;;;;;;7369931;19;20460;-63
2023/06/29 03:42:30;;;;;;;41.95;37.13;;;18.30;99.90;;;;;;7372148;19;20476;-63
2023/06/29 03:44:56;;;;;;;40.75;36.33;;;18.20;99.90;;;;;;7373151;19;20022;-64
2023/06/29 03:47:25;;;;;;;42.58;36.80;;;18.30;99.90;;;;;;7369314;19;20026;-64
2023/06/29 03:49:51;;;;;;;40.85;35.60;;;18.30;99.90;;;;;;7382653;19;20026;-63
2023/06/29 03:52:17;;;;;;;39.03;34.35;;;18.30;99.90;;;;;;7387704;19;20055;-63
2023/06/29 03:54:44;;;;;;;38.50;33.53;;;18.30;99.90;;;;;;7385561;19;20399;-64
2023/06/29 03:57:10;;;;;;;40.78;35.78;;;18.30;99.90;;;;;;7385138;19;20018;-64
2023/06/29 03:59:36;;;;;;;39.35;35.17;;;18.40;99.90;;;;;;7380379;19;20020;-64
2023/06/29 04:02:03;;;;;;;39.72;35.42;;;18.40;99.90;;;;;;7384328;19;20885;-64
2023/06/29 04:04:30;;;;;;;41.75;36.83;;;18.40;99.90;;;;;;7385024;19;20018;-64
2023/06/29 04:06:56;;;;;;;38.90;34.70;;;18.40;99.90;;;;;;7382138;19;20104;-64
2023/06/29 04:09:22;;;;;;;41.30;36.20;;;18.40;99.90;;;;;;7388355;19;20501;-64
2023/06/29 04:11:49;;;;;;;40.13;35.90;;;18.50;99.90;;;;;;7382394;19;20090;-64
2023/06/29 04:14:15;;;;;;;40.72;36.33;;;18.50;99.90;;;;;;7384835;19;20090;-63
2023/06/29 04:16:41;;;;;;;38.42;34.28;;;18.50;99.90;;;;;;7384712;19;20466;-63
2023/06/29 04:19:08;;;;;;;43.78;35.47;;;18.60;99.90;;;;;;7383270;19;20039;-63
2023/06/29 04:21:35;;;;;;;38.97;34.40;;;18.60;99.90;;;;;;7383721;19;20045;-63
2023/06/29 04:24:01;;;;;;;41.95;35.65;;;18.60;99.90;;;;;;7387148;19;20035;-63
2023/06/29 04:26:28;;;;;;;40.03;35.72;;;18.70;99.90;;;;;;7383329;19;20055;-63
2023/06/29 04:29:02;;;;;;;40.10;35.58;;;18.70;99.90;;;;;;7384047;19;20014;-63
2023/06/29 04:31:29;;;;;;;36.17;31.50;;;18.80;99.90;;;;;;7386496;19;20086;-63
2023/06/29 04:34:02;;;;;;;41.38;34.53;;;18.80;99.90;;;;;;7385405;19;20050;-64
2023/06/29 04:36:29;;;;;;;40.60;36.22;;;18.80;99.90;;;;;;7382490;19;20026;-64
2023/06/29 04:38:55;;;;;;;41.63;34.60;;;18.90;99.90;;;;;;7380908;19;20022;-63
2023/06/29 04:41:32;;;;;;;38.58;34.63;;;18.90;99.90;;;;;;7385257;19;20377;-63
2023/06/29 04:44:03;;;;;;;39.10;34.92;;;19.00;99.90;;;;;;7384367;19;20010;-63
2023/06/29 04:46:29;;;;;;;41.10;36.67;;;19.10;99.90;;;;;;7382909;19;20014;-63
2023/06/29 04:48:56;;;;;;;39.55;34.45;;;19.10;99.90;;;;;;7385816;19;20026;-64
2023/06/29 04:51:22;;;;;;;42.22;33.45;;;19.10;99.90;;;;;;7383240;19;20018;-63
2023/06/29 04:53:49;;;;;;;40.35;35.33;;;19.20;99.90;;;;;;7386209;19;20041;-62
2023/06/29 04:56:15;;;;;;;39.28;34.97;;;19.30;99.90;;;;;;7383741;19;20022;-63
2023/06/29 04:58:41;;;;;;;38.30;32.28;;;19.40;99.90;;;;;;7385854;19;20056;-62
2023/06/29 05:01:10;;;;;;;37.10;33.17;;;19.40;99.90;;;;;;7372243;19;20026;-64
2023/06/29 05:03:36;;;;;;;39.33;34.65;;;19.40;99.90;;;;;;7374455;19;20480;-62
2023/06/29 05:06:02;;;;;;;38.65;33.92;;;19.50;99.90;;;;;;7378352;19;20514;-62
2023/06/29 05:08:30;;;;;;;37.17;33.17;;;19.60;99.90;;;;;;7368614;19;20041;-62
2023/06/29 05:10:56;;;;;;;38.67;34.60;;;19.60;99.90;;;;;;7378173;19;20027;-63
2023/06/29 05:13:22;;;;;;;41.65;35.42;;;19.60;99.90;;;;;;7376753;19;20021;-63
2023/06/29 05:15:49;;;;;;;37.90;33.88;;;19.70;99.90;;;;;;7378573;19;20515;-63
2023/06/29 05:18:15;;;;;;;39.72;35.25;;;19.80;99.90;;;;;;7374345;19;20670;-62
2023/06/29 05:20:42;;;;;;;38.47;34.17;;;19.90;99.90;;;;;;7376992;19;20018;-62
2023/06/29 05:23:11;;;;;;;38.45;34.25;;;20.00;99.90;;;;;;7376191;19;20014;-62
2023/06/29 05:25:41;;;;;;;37.72;32.70;;;20.10;99.90;;;;;;7379119;19;20010;-62
2023/06/29 05:28:07;;;;;;;35.75;31.85;;;20.20;99.90;;;;;;7370090;19;20031;-63
2023/06/29 05:30:34;;;;;;;35.38;31.58;;;20.30;99.90;;;;;;7373042;19;20018;-63
2023/06/29 05:33:00;;;;;;;37.90;33.88;;;20.40;99.90;;;;;;7373963;19;20052;-64
2023/06/29 05:35:26;;;;;;;35.60;30.83;;;20.50;99.90;;;;;;7372041;19;20022;-63
2023/06/29 05:37:53;;;;;;;35.78;31.38;;;20.60;99.90;;;;;;7372891;19;20035;-63
2023/06/29 05:40:19;;;;;;;35.28;31.60;;;20.60;99.90;;;;;;7373096;19;21045;-63
2023/06/29 05:42:46;;;;;;;34.78;30.98;;;20.60;99.90;;;;;;7375828;19;20424;-64
2023/06/29 05:45:13;;;;;;;36.35;31.55;;;20.80;99.90;;;;;;7376351;19;20087;-64
2023/06/29 05:47:39;;;;;;;34.97;31.23;;;20.80;99.90;;;;;;7370932;19;20615;-63
2023/06/29 05:50:06;;;;;;;34.28;30.30;;;20.90;99.90;;;;;;7370541;19;20093;-60
2023/06/29 05:52:37;;;;;;;37.22;32.03;;;21.00;99.90;;;;;;7373939;19;20022;-63
2023/06/29 05:55:04;;;;;;;33.75;29.67;;;21.00;99.90;;;;;;7373105;19;20022;-62
2023/06/29 05:57:31;;;;;;;36.25;31.23;;;21.10;99.90;;;;;;7373956;19;20019;-63
2023/06/29 05:59:57;;;;;;;32.90;29.23;;;21.10;99.90;;;;;;7370415;19;20082;-65
2023/06/29 06:02:23;;;;;;;35.42;30.63;;;21.10;99.90;;;;;;7375207;19;20025;-64
2023/06/29 06:04:49;;;;;;;33.58;29.85;;;21.00;99.90;;;;;;7375091;19;20105;-63
2023/06/29 06:07:29;;;;;;;33.85;30.27;;;21.00;99.90;;;;;;7374238;19;20056;-63
2023/06/29 06:09:56;;;;;;;34.45;29.75;;;21.10;99.90;;;;;;7376701;19;20021;-63
2023/06/29 06:12:22;;;;;;;32.70;29.15;;;21.10;99.90;;;;;;7368239;19;20508;-63
2023/06/29 06:14:49;;;;;;;34.05;30.35;;;21.10;99.90;;;;;;7370034;19;20022;-61
2023/06/29 06:17:15;;;;;;;35.90;29.17;;;21.20;99.90;;;;;;7374074;19;20023;-63
2023/06/29 06:19:42;;;;;;;34.25;29.17;;;21.20;99.90;;;;;;7379695;19;20018;-63
2023/06/29 06:22:08;;;;;;;32.03;28.50;;;21.10;99.90;;;;;;7371233;19;21192;-63
2023/06/29 06:24:35;;;;;;;45.30;33.95;;;21.10;99.90;;;;;;7376293;19;20022;-64
2023/06/29 06:27:02;;;;;;;33.53;29.35;;;21.00;99.90;;;;;;7372982;19;20022;-64
2023/06/29 06:29:28;;;;;;;35.13;31.42;;;21.00;99.90;;;;;;7374122;19;20501;-64
2023/06/29 06:31:55;;;;;;;35.40;31.58;;;20.90;99.90;;;;;;7374353;19;20025;-63
2023/06/29 06:34:21;;;;;;;37.63;32.05;;;20.90;99.90;;;;;;7377405;19;20101;-61
2023/06/29 06:36:48;;;;;;;34.10;30.45;;;20.80;99.90;;;;;;7374230;19;20983;-64
2023/06/29 06:39:18;;;;;;;35.33;31.58;;;20.80;99.90;;;;;;7375975;19;20022;-64
2023/06/29 06:41:44;;;;;;;37.65;32.63;;;20.80;99.90;;;;;;7372253;19;20014;-64
2023/06/29 06:44:15;;;;;;;36.38;32.50;;;20.70;99.90;;;;;;7372597;19;20078;-64
2023/06/29 06:46:44;;;;;;;38.40;32.33;;;20.70;99.90;;;;;;7373125;19;20512;-64
2023/06/29 06:49:10;;;;;;;38.42;31.77;;;20.60;99.90;;;;;;7371426;19;20011;-65
2023/06/29 06:51:36;;;;;;;40.67;33.08;;;20.50;99.90;;;;;;7372388;19;20018;-64
2023/06/29 06:54:02;;;;;;;35.70;32.00;;;20.40;99.90;;;;;;7372092;19;20029;-65
2023/06/29 06:56:29;;;;;;;38.67;33.65;;;20.40;99.90;;;;;;7371764;19;20482;-64
2023/06/29 06:58:55;;;;;;;40.63;32.13;;;20.40;99.90;;;;;;7371716;19;20018;-62
2023/06/29 07:01:22;;;;;;;38.28;33.20;;;20.40;99.90;;;;;;7375712;19;20023;-69
2023/06/29 07:03:49;;;;;;;33.88;30.25;;;20.30;99.90;;;;;;7376042;19;20030;-64
2023/06/29 07:06:15;;;;;;;37.38;33.40;;;20.30;99.90;;;;;;7376688;19;20481;-64
2023/06/29 07:08:41;;;;;;;38.05;32.95;;;20.40;99.90;;;;;;7368307;19;20041;-65
2023/06/29 07:11:07;;;;;;;38.97;33.00;;;20.30;99.90;;;;;;7372677;19;20497;-64
2023/06/29 07:13:34;;;;;;;39.22;33.38;;;20.30;99.90;;;;;;7372758;19;20618;-64
2023/06/29 07:16:00;;;;;;;38.40;34.28;;;20.40;99.90;;;;;;7372967;19;20366;-64
2023/06/29 07:18:26;;;;;;;38.83;32.95;;;20.50;99.90;;;;;;7371689;19;20018;-63
2023/06/29 07:20:53;;;;;;;39.97;33.40;;;20.60;99.90;;;;;;7369129;19;20022;-63
2023/06/29 07:23:19;;;;;;;36.58;32.20;;;20.70;99.90;;;;;;7371049;19;20097;-63
2023/06/29 07:25:45;;;;;;;42.38;33.72;;;20.80;99.90;;;;;;7371778;19;20039;-63
2023/06/29 07:28:12;;;;;;;41.75;33.35;;;20.90;99.90;;;;;;7372129;19;20493;-64
2023/06/29 07:30:38;;;;;;;35.50;31.70;;;21.00;99.90;;;;;;7372300;19;20029;-64
2023/06/29 07:33:04;;;;;;;44.65;39.40;;;21.20;99.90;;;;;;7370961;19;20019;-63
2023/06/29 07:35:30;;;;;;;35.92;31.17;;;21.40;99.90;;;;;;7372032;19;20015;-63
2023/06/29 07:37:57;;;;;;;39.10;35.00;;;21.60;99.90;;;;;;7370421;19;20011;-64
2023/06/29 07:40:23;;;;;;;40.80;34.80;;;21.70;99.90;;;;;;7370579;19;20018;-63
2023/06/29 07:42:50;;;;;;;39.28;34.85;;;21.80;99.90;;;;;;7369201;19;20014;-63
2023/06/29 07:45:17;;;;;;;39.15;35.25;;;21.90;99.90;;;;;;7372853;19;20094;-64
2023/06/29 07:47:43;;;;;;;38.17;34.08;;;22.00;99.90;;;;;;7371069;19;20025;-63
2023/06/29 07:50:10;;;;;;;44.47;37.75;;;22.10;99.90;;;;;;7368791;19;20026;-64
2023/06/29 07:52:37;;;;;;;46.08;41.28;;;22.10;99.90;;;;;;7369972;19;20529;-64
2023/06/29 07:55:04;;;;;;;43.17;38.58;;;22.10;99.90;;;;;;7370304;19;20018;-64
2023/06/29 07:57:30;;;;;;;44.75;39.90;;;22.10;99.90;;;;;;7370301;19;20019;-63
2023/06/29 07:59:56;;;;;;;43.08;38.53;;;22.00;99.90;;;;;;7369648;19;20481;-64
2023/06/29 08:02:22;;;;;;;44.40;38.58;;;22.00;99.90;;;;;;7373609;19;20015;-64
2023/06/29 08:04:50;;;;;;;43.65;36.75;;;21.90;99.90;;;;;;7371616;19;20387;-64
2023/06/29 08:07:16;;;;;;;41.53;37.08;;;21.80;99.90;;;;;;7370194;19;20036;-64
2023/06/29 08:09:43;;;;;;;49.17;39.78;;;21.80;99.90;;;;;;7370430;19;20049;-65
2023/06/29 08:12:09;;;;;;;43.78;39.15;;;21.70;99.90;;;;;;7370725;19;20010;-65
2023/06/29 08:14:37;;;;;;;41.78;37.28;;;21.60;99.90;;;;;;7369884;19;20763;-66
2023/06/29 08:17:03;;;;;;;41.65;35.22;;;21.50;99.90;;;;;;7369641;19;20030;-66
2023/06/29 08:19:30;;;;;;;40.15;35.40;;;21.40;99.90;;;;;;7370673;19;20388;-66
2023/06/29 08:21:56;;;;;;;45.60;37.78;;;21.30;99.90;;;;;;7370402;19;20030;-71
2023/06/29 08:24:22;;;;;;;87.07;78.22;;;21.20;99.90;;;;;;7373080;19;20018;-62
2023/06/29 08:26:51;;;;;;;69.70;62.42;;;21.30;99.90;;;;;;7371265;19;20014;-66
2023/06/29 08:29:21;;;;;;;51.60;45.60;;;21.30;99.90;;;;;;7369252;19;20018;-61
2023/06/29 08:31:47;;;;;;;69.28;61.88;;;21.40;99.90;;;;;;7374445;19;20090;-61
2023/06/29 08:34:14;;;;;;;79.63;71.72;;;21.70;99.90;;;;;;7371734;19;20407;-61
2023/06/29 08:36:40;;;;;;;52.47;46.85;;;21.90;99.90;;;;;;7381880;19;20876;-61
2023/06/29 08:39:08;;;;;;;59.70;53.40;;;22.00;99.90;;;;;;7380863;19;20548;-63
2023/06/29 08:41:35;;;;;;;55.20;49.22;;;22.30;99.90;;;;;;7379400;19;20015;-64
2023/06/29 08:44:04;;;;;;;59.10;52.53;;;22.50;99.90;;;;;;7377738;19;20018;-63
2023/06/29 08:46:31;;;;;;;95.20;85.50;;;22.50;99.90;;;;;;7376487;19;20014;-63
2023/06/29 08:49:00;;;;;;;42.08;37.25;;;22.80;99.90;;;;;;7376376;19;20134;-62
2023/06/29 08:51:28;;;;;;;79.90;71.47;;;23.10;99.90;;;;;;7377789;19;20029;-64
2023/06/29 08:53:55;;;;;;;42.53;37.95;;;23.40;99.90;;;;;;7377937;19;20018;-65
2023/06/29 08:56:23;;;;;;;42.80;38.22;;;23.60;99.90;;;;;;7370904;19;20029;-65
2023/06/29 08:58:51;;;;;;;37.97;33.92;;;23.80;99.90;;;;;;7371893;19;20018;-65
2023/06/29 09:01:19;;;;;;;36.88;32.13;;;23.90;99.90;;;;;;7376247;19;20094;-64
2023/06/29 09:03:46;;;;;;;35.08;31.40;;;24.00;99.90;;;;;;7376658;19;20018;-65
2023/06/29 09:06:14;;;;;;;37.15;31.13;;;23.90;99.90;;;;;;7378116;19;20107;-64
2023/06/29 09:08:41;;;;;;;39.45;35.33;;;23.70;99.90;;;;;;7375145;19;20484;-63
2023/06/29 09:11:07;;;;;;;34.28;30.67;;;23.30;99.90;;;;;;7377939;19;20469;-64
2023/06/29 09:13:34;;;;;;;40.95;34.35;;;23.20;99.90;;;;;;7374544;19;20022;-62
2023/06/29 09:16:02;;;;;;;38.53;33.88;;;23.00;99.90;;;;;;7373178;19;20481;-69
2023/06/29 09:18:28;;;;;;;37.38;32.47;;;23.00;99.90;;;;;;7368110;19;20087;-62
2023/06/29 09:20:55;;;;;;;41.35;36.70;;;23.00;99.90;;;;;;7371427;19;20644;-63
2023/06/29 09:23:31;;;;;;;38.13;33.30;;;23.00;99.90;;;;;;7374148;19;20034;-64
2023/06/29 09:25:57;;;;;;;45.97;41.13;;;23.10;99.90;;;;;;7377321;19;20447;-64
2023/06/29 09:28:24;;;;;;;42.25;36.60;;;23.10;99.90;;;;;;7375717;19;20587;-66
2023/06/29 09:30:51;;;;;;;40.63;33.88;;;23.20;99.90;;;;;;7375559;19;20023;-63
2023/06/29 09:33:18;;;;;;;37.22;33.22;;;23.10;99.90;;;;;;7373424;19;20403;-63
2023/06/29 09:35:51;;;;;;;35.03;30.35;;;22.90;99.90;;;;;;7376520;19;20015;-63
2023/06/29 09:38:18;;;;;;;29.48;26.38;;;22.90;99.90;;;;;;7378344;19;20351;-62
2023/06/29 09:40:53;;;;;;;29.85;26.60;;;22.80;99.90;;;;;;7372567;19;20484;-62
2023/06/29 09:43:26;;;;;;;38.40;34.50;;;22.60;99.90;;;;;;7375572;19;20037;-64
2023/06/29 09:45:59;;;;;;;31.35;27.98;;;22.50;99.90;;;;;;7372934;19;20035;-64
2023/06/29 09:48:26;;;;;;;49.67;44.67;;;22.50;99.90;;;;;;7375882;19;20015;-63
2023/06/29 09:50:54;;;;;;;36.35;32.45;;;22.30;99.90;;;;;;7375785;19;20027;-65
2023/06/29 09:53:44;;;;;;;35.10;31.25;;;22.30;99.90;;;;;;7373420;19;20045;-63
2023/06/29 09:56:10;;;;;;;31.73;28.50;;;22.10;99.90;;;;;;7371218;19;20483;-63
2023/06/29 09:58:37;;;;;;;34.80;29.60;;;22.10;99.90;;;;;;7374653;19;20671;-63
2023/06/29 10:01:03;;;;;;;37.63;32.15;;;21.90;99.90;;;;;;7370852;19;20015;-62
2023/06/29 10:03:32;;;;;;;33.78;30.17;;;21.90;99.90;;;;;;7376329;19;20423;-64
2023/06/29 10:06:13;;;;;;;34.17;28.58;;;21.70;99.90;;;;;;7375605;19;20014;-61
2023/06/29 10:08:42;;;;;;;33.63;29.92;;;21.60;99.90;;;;;;7372274;19;20030;-64
2023/06/29 10:11:08;;;;;;;33.45;28.27;;;21.50;99.90;;;;;;7373405;19;20476;-66
2023/06/29 10:13:47;;;;;;;34.35;30.35;;;21.50;99.90;;;;;;7372227;19;20019;-66
2023/06/29 10:16:17;;;;;;;35.65;30.70;;;21.40;99.90;;;;;;7373807;19;20015;-65
2023/06/29 10:18:46;;;;;;;40.60;36.20;;;21.40;99.90;;;;;;7374186;19;20604;-66
2023/06/29 10:21:13;;;;;;;37.70;30.67;;;21.40;99.90;;;;;;7371770;19;20357;-66
2023/06/29 10:23:42;;;;;;;35.45;31.65;;;21.50;99.90;;;;;;7373531;19;20791;-65
2023/06/29 10:26:10;;;;;;;31.13;27.50;;;21.50;99.90;;;;;;7368691;19;20403;-66
2023/06/29 10:28:37;;;;;;;34.50;30.80;;;21.60;99.90;;;;;;7372182;19;20533;-65
2023/06/29 10:31:04;;;;;;;33.15;28.90;;;21.70;99.90;;;;;;7371574;19;20827;-65
2023/06/29 10:33:30;;;;;;;34.67;29.65;;;21.80;99.90;;;;;;7372513;19;20429;-64
2023/06/29 10:35:58;;;;;;;40.45;36.17;;;21.90;99.90;;;;;;7374882;19;20018;-67
2023/06/29 10:38:34;;;;;;;45.25;40.45;;;21.90;99.90;;;;;;7370490;19;20018;-66
2023/06/29 10:41:04;;;;;;;36.33;32.20;;;22.10;99.90;;;;;;7370496;19;20011;-66
2023/06/29 10:43:55;;;;;;;36.17;32.42;;;22.10;99.90;;;;;;7371727;19;20078;-67
2023/06/29 10:46:43;;;;;;;37.50;33.30;;;22.20;99.90;;;;;;7377776;19;20023;-65
2023/06/29 10:49:24;;;;;;;75.28;67.38;;;22.20;99.90;;;;;;7373725;19;21667;-62
2023/06/29 10:52:03;;;;;;;44.15;37.65;;;22.30;99.90;;;;;;7373637;19;20369;-60
2023/06/29 10:54:29;;;;;;;35.65;31.85;;;22.30;99.90;;;;;;7370668;19;20420;-64
2023/06/29 10:57:01;;;;;;;36.88;32.95;;;22.30;99.90;;;;;;7372540;19;20022;-63
2023/06/29 10:59:29;;;;;;;35.00;31.23;;;22.40;99.90;;;;;;7368585;19;20018;-62
2023/06/29 11:01:55;;;;;;;36.67;31.20;;;22.50;99.90;;;;;;7372554;19;20011;-66
2023/06/29 11:04:23;;;;;;;33.97;30.40;;;22.60;99.90;;;;;;7373860;19;20101;-66
2023/06/29 11:06:49;;;;;;;34.20;29.08;;;22.70;99.90;;;;;;7373458;19;20026;-66
2023/06/29 11:09:16;;;;;;;36.15;30.20;;;22.80;99.90;;;;;;7370173;19;20040;-66
2023/06/29 11:11:47;;;;;;;33.78;30.23;;;23.10;99.90;;;;;;7368383;19;20022;-66
2023/06/29 11:14:14;;;;;;;33.85;30.15;;;23.00;99.90;;;;;;7373015;19;20473;-66
2023/06/29 11:16:41;;;;;;;37.00;33.17;;;23.00;99.90;;;;;;7374629;19;20047;-62
2023/06/29 11:19:07;;;;;;;39.20;34.92;;;23.10;99.90;;;;;;7375162;19;20026;-61
2023/06/29 11:21:37;;;;;;;36.95;32.92;;;23.30;99.90;;;;;;7372089;19;20021;-63
2023/06/29 11:24:04;;;;;;;38.45;34.30;;;23.50;99.90;;;;;;7371825;19;20026;-64
2023/06/29 11:26:30;;;;;;;40.55;36.17;;;23.70;99.90;;;;;;7369640;19;20018;-63
2023/06/29 11:28:57;;;;;;;39.30;35.20;;;24.00;99.90;;;;;;7373246;19;20486;-61
2023/06/29 11:31:24;;;;;;;36.40;30.13;;;24.30;99.90;;;;;;7365596;19;20022;-63
2023/06/29 11:33:52;;;;;;;32.92;29.55;;;24.80;99.90;;;;;;7369182;19;20038;-63
2023/06/29 11:36:29;;;;;;;32.80;29.35;;;24.90;99.90;;;;;;7372360;19;20018;-65
2023/06/29 11:39:09;;;;;;;33.00;29.50;;;25.50;99.90;;;;;;7373171;19;20842;-62
2023/06/29 11:41:41;;;;;;;32.95;29.75;;;25.40;99.90;;;;;;7370381;19;20017;-63
2023/06/29 11:44:08;;;;;;;32.88;29.48;;;25.10;99.90;;;;;;7370427;19;20015;-63
2023/06/29 11:46:35;;;;;;;34.30;30.52;;;24.80;99.90;;;;;;7369641;19;20022;-63
2023/06/29 11:49:05;;;;;;;32.25;28.75;;;24.80;99.90;;;;;;7368256;19;20027;-65
2023/06/29 11:51:33;;;;;;;31.35;28.05;;;25.40;99.90;;;;;;7366857;19;20037;-63
2023/06/29 11:54:00;;;;;;;30.70;27.52;;;26.00;99.90;;;;;;7368502;19;20090;-64
2023/06/29 11:56:33;;;;;;;32.45;28.83;;;26.40;99.90;;;;;;7372251;19;20880;-64
2023/06/29 11:59:10;;;;;;;29.83;26.73;;;26.50;99.90;;;;;;7373000;19;20014;-63
2023/06/29 12:01:40;;;;;;;30.65;27.42;;;27.00;99.90;;;;;;7367182;19;20022;-65
2023/06/29 12:04:08;;;;;;;30.05;27.10;;;26.80;99.90;;;;;;7371524;19;20035;-64
2023/06/29 12:06:35;;;;;;;30.90;27.33;;;26.70;99.90;;;;;;7369359;19;20494;-64
2023/06/29 12:09:11;;;;;;;29.13;26.13;;;26.80;99.90;;;;;;7370866;19;20018;-64
2023/06/29 12:11:39;;;;;;;31.17;27.65;;;26.60;99.90;;;;;;7379466;19;20018;-64
2023/06/29 12:14:09;;;;;;;29.85;26.75;;;26.60;99.90;;;;;;7376750;19;20026;-64
2023/06/29 12:16:43;;;;;;;27.88;24.88;;;26.10;99.90;;;;;;7380388;19;20014;-63
2023/06/29 12:19:13;;;;;;;30.40;27.40;;;25.90;99.90;;;;;;7377202;19;20020;-64
2023/06/29 12:21:40;;;;;;;30.98;27.77;;;25.60;99.90;;;;;;7379204;19;20465;-64
2023/06/29 12:24:06;;;;;;;30.48;27.27;;;25.40;99.90;;;;;;7378776;19;20018;-64
2023/06/29 12:26:33;;;;;;;30.65;27.38;;;25.30;99.90;;;;;;7377977;19;20461;-68
2023/06/29 12:28:59;;;;;;;29.17;26.27;;;25.00;99.90;;;;;;7374833;19;20026;-68
2023/06/29 12:31:27;;;;;;;32.15;27.30;;;24.80;99.90;;;;;;7376250;19;20090;-69